sensor_id;sensor_type;location;lat;lon;timestamp;temperature;humidity
76291;DHT22;65100;46.884;17.410;2023-04-03T00:00:52;5.68;68.26
76291;DHT22;65100;46.884;17.410;2023-04-03T00:03:18;5.69;67.83
76291;DHT22;65100;46.884;17.410;2023-04-03T00:05:45;5.69;68.37
76291;DHT22;65100;46.884;17.410;2023-04-03T00:08:10;5.76;68.09
76291;DHT22;65100;46.884;17.410;2023-04-03T00:10:37;5.72;68.83
76291;DHT22;65100;46.884;17.410;2023-04-03T00:13:03;5.73;69.36
76291;DHT22;65100;46.884;17.410;2023-04-03T00:15:29;5.72;68.53
76291;DHT22;65100;46.884;17.410;2023-04-03T00:17:55;5.72;69.16
76291;DHT22;65100;46.884;17.410;2023-04-03T00:20:20;5.76;68.54
76291;DHT22;65100;46.884;17.410;2023-04-03T00:22:46;5.72;69.33
76291;DHT22;65100;46.884;17.410;2023-04-03T00:25:11;5.69;69.50
76291;DHT22;65100;46.884;17.410;2023-04-03T00:27:58;5.68;69.34
76291;DHT22;65100;46.884;17.410;2023-04-03T00:30:44;5.71;69.98
76291;DHT22;65100;46.884;17.410;2023-04-03T00:33:13;5.72;69.27
76291;DHT22;65100;46.884;17.410;2023-04-03T00:35:38;5.69;69.36
76291;DHT22;65100;46.884;17.410;2023-04-03T00:38:04;5.56;68.67
76291;DHT22;65100;46.884;17.410;2023-04-03T00:40:35;5.78;70.33
76291;DHT22;65100;46.884;17.410;2023-04-03T00:43:00;5.75;70.00
76291;DHT22;65100;46.884;17.410;2023-04-03T00:45:30;5.81;69.88
76291;DHT22;65100;46.884;17.410;2023-04-03T00:47:57;5.79;69.11
76291;DHT22;65100;46.884;17.410;2023-04-03T00:50:26;5.81;70.00
76291;DHT22;65100;46.884;17.410;2023-04-03T00:52:52;5.85;70.45
76291;DHT22;65100;46.884;17.410;2023-04-03T00:55:17;5.88;69.90
76291;DHT22;65100;46.884;17.410;2023-04-03T00:57:44;5.86;70.35
76291;DHT22;65100;46.884;17.410;2023-04-03T01:00:14;5.81;69.48
76291;DHT22;65100;46.884;17.410;2023-04-03T01:02:41;5.78;69.56
76291;DHT22;65100;46.884;17.410;2023-04-03T01:05:07;5.82;70.09
76291;DHT22;65100;46.884;17.410;2023-04-03T01:07:33;5.83;70.20
76291;DHT22;65100;46.884;17.410;2023-04-03T01:10:06;5.89;70.35
76291;DHT22;65100;46.884;17.410;2023-04-03T01:12:34;5.85;69.40
76291;DHT22;65100;46.884;17.410;2023-04-03T01:15:05;5.83;69.60
76291;DHT22;65100;46.884;17.410;2023-04-03T01:17:35;5.86;69.58
76291;DHT22;65100;46.884;17.410;2023-04-03T01:25:43;5.91;69.03
76291;DHT22;65100;46.884;17.410;2023-04-03T01:28:16;5.92;69.98
76291;DHT22;65100;46.884;17.410;2023-04-03T01:31:31;5.91;69.94
76291;DHT22;65100;46.884;17.410;2023-04-03T01:33:37;5.89;69.21
76291;DHT22;65100;46.884;17.410;2023-04-03T01:36:04;5.88;70.30
76291;DHT22;65100;46.884;17.410;2023-04-03T01:38:51;5.92;69.70
76291;DHT22;65100;46.884;17.410;2023-04-03T01:41:17;5.88;69.44
76291;DHT22;65100;46.884;17.410;2023-04-03T01:43:43;5.88;68.94
76291;DHT22;65100;46.884;17.410;2023-04-03T01:46:09;5.91;68.66
76291;DHT22;65100;46.884;17.410;2023-04-03T01:48:35;5.96;69.64
76291;DHT22;65100;46.884;17.410;2023-04-03T01:51:00;5.93;69.77
76291;DHT22;65100;46.884;17.410;2023-04-03T01:53:26;5.89;69.86
76291;DHT22;65100;46.884;17.410;2023-04-03T01:55:51;5.91;70.69
76291;DHT22;65100;46.884;17.410;2023-04-03T01:58:17;5.85;70.07
76291;DHT22;65100;46.884;17.410;2023-04-03T02:00:42;5.85;69.77
76291;DHT22;65100;46.884;17.410;2023-04-03T02:03:08;5.86;69.54
76291;DHT22;65100;46.884;17.410;2023-04-03T02:05:34;5.83;68.85
76291;DHT22;65100;46.884;17.410;2023-04-03T02:08:00;5.89;69.57
76291;DHT22;65100;46.884;17.410;2023-04-03T02:10:25;5.92;70.43
76291;DHT22;65100;46.884;17.410;2023-04-03T02:12:51;5.85;70.24
76291;DHT22;65100;46.884;17.410;2023-04-03T02:15:17;5.95;69.67
76291;DHT22;65100;46.884;17.410;2023-04-03T02:17:42;5.93;68.72
76291;DHT22;65100;46.884;17.410;2023-04-03T02:20:08;5.93;69.47
76291;DHT22;65100;46.884;17.410;2023-04-03T02:22:34;5.95;70.17
76291;DHT22;65100;46.884;17.410;2023-04-03T02:24:59;5.93;69.65
76291;DHT22;65100;46.884;17.410;2023-04-03T02:27:25;5.88;69.67
76291;DHT22;65100;46.884;17.410;2023-04-03T02:29:51;5.95;70.06
76291;DHT22;65100;46.884;17.410;2023-04-03T02:32:16;5.93;69.73
76291;DHT22;65100;46.884;17.410;2023-04-03T02:34:41;5.95;69.86
76291;DHT22;65100;46.884;17.410;2023-04-03T02:37:07;5.92;70.22
76291;DHT22;65100;46.884;17.410;2023-04-03T02:39:33;5.91;70.02
76291;DHT22;65100;46.884;17.410;2023-04-03T02:41:58;5.91;70.18
76291;DHT22;65100;46.884;17.410;2023-04-03T02:44:24;5.89;70.16
76291;DHT22;65100;46.884;17.410;2023-04-03T02:46:49;5.89;69.97
76291;DHT22;65100;46.884;17.410;2023-04-03T02:49:15;5.93;69.27
76291;DHT22;65100;46.884;17.410;2023-04-03T02:51:41;5.95;69.96
76291;DHT22;65100;46.884;17.410;2023-04-03T02:54:07;5.93;70.00
76291;DHT22;65100;46.884;17.410;2023-04-03T02:56:33;5.99;70.05
76291;DHT22;65100;46.884;17.410;2023-04-03T02:58:58;5.98;69.62
76291;DHT22;65100;46.884;17.410;2023-04-03T03:01:24;5.95;69.89
76291;DHT22;65100;46.884;17.410;2023-04-03T03:03:49;5.91;70.00
76291;DHT22;65100;46.884;17.410;2023-04-03T03:06:16;5.92;69.91
76291;DHT22;65100;46.884;17.410;2023-04-03T03:08:42;5.95;70.20
76291;DHT22;65100;46.884;17.410;2023-04-03T03:11:09;5.91;69.66
76291;DHT22;65100;46.884;17.410;2023-04-03T03:13:34;5.93;70.02
76291;DHT22;65100;46.884;17.410;2023-04-03T03:16:00;5.91;70.29
76291;DHT22;65100;46.884;17.410;2023-04-03T03:18:26;5.91;70.38
76291;DHT22;65100;46.884;17.410;2023-04-03T03:20:56;5.88;71.16
76291;DHT22;65100;46.884;17.410;2023-04-03T03:23:24;5.81;71.56
76291;DHT22;65100;46.884;17.410;2023-04-03T03:25:57;5.78;71.87
76291;DHT22;65100;46.884;17.410;2023-04-03T03:28:24;5.75;71.88
76291;DHT22;65100;46.884;17.410;2023-04-03T03:30:49;5.76;72.46
76291;DHT22;65100;46.884;17.410;2023-04-03T03:33:15;5.71;71.90
76291;DHT22;65100;46.884;17.410;2023-04-03T03:35:42;5.81;71.92
76291;DHT22;65100;46.884;17.410;2023-04-03T03:38:08;5.78;70.10
76291;DHT22;65100;46.884;17.410;2023-04-03T03:40:33;5.91;69.81
76291;DHT22;65100;46.884;17.410;2023-04-03T03:42:59;5.85;70.66
76291;DHT22;65100;46.884;17.410;2023-04-03T03:45:24;5.82;70.71
76291;DHT22;65100;46.884;17.410;2023-04-03T03:47:50;5.85;70.90
76291;DHT22;65100;46.884;17.410;2023-04-03T03:50:16;5.88;70.00
76291;DHT22;65100;46.884;17.410;2023-04-03T03:52:41;5.92;70.70
76291;DHT22;65100;46.884;17.410;2023-04-03T03:55:07;6.02;70.86
76291;DHT22;65100;46.884;17.410;2023-04-03T03:57:33;5.96;70.77
76291;DHT22;65100;46.884;17.410;2023-04-03T03:59:58;6.05;70.08
76291;DHT22;65100;46.884;17.410;2023-04-03T04:02:24;6.06;70.79
76291;DHT22;65100;46.884;17.410;2023-04-03T04:04:49;6.09;70.44
76291;DHT22;65100;46.884;17.410;2023-04-03T04:07:14;6.02;69.60
76291;DHT22;65100;46.884;17.410;2023-04-03T04:09:40;6.02;70.51
76291;DHT22;65100;46.884;17.410;2023-04-03T04:12:05;6.05;70.02
76291;DHT22;65100;46.884;17.410;2023-04-03T04:14:31;6.05;70.22
76291;DHT22;65100;46.884;17.410;2023-04-03T04:16:56;6.02;70.38
76291;DHT22;65100;46.884;17.410;2023-04-03T04:19:22;5.99;70.21
76291;DHT22;65100;46.884;17.410;2023-04-03T04:21:47;6.03;69.89
76291;DHT22;65100;46.884;17.410;2023-04-03T04:24:13;5.96;69.95
76291;DHT22;65100;46.884;17.410;2023-04-03T04:26:38;5.92;69.27
76291;DHT22;65100;46.884;17.410;2023-04-03T04:29:04;5.88;69.58
76291;DHT22;65100;46.884;17.410;2023-04-03T04:31:29;5.89;69.41
76291;DHT22;65100;46.884;17.410;2023-04-03T04:33:55;5.85;68.92
76291;DHT22;65100;46.884;17.410;2023-04-03T04:36:20;5.89;69.33
76291;DHT22;65100;46.884;17.410;2023-04-03T04:38:46;5.91;69.03
76291;DHT22;65100;46.884;17.410;2023-04-03T04:41:11;5.99;67.68
76291;DHT22;65100;46.884;17.410;2023-04-03T04:43:37;6.03;68.29
76291;DHT22;65100;46.884;17.410;2023-04-03T04:46:08;5.96;68.55
76291;DHT22;65100;46.884;17.410;2023-04-03T04:48:34;5.98;68.72
76291;DHT22;65100;46.884;17.410;2023-04-03T04:51:00;6.02;68.40
76291;DHT22;65100;46.884;17.410;2023-04-03T04:53:26;6.03;69.07
76291;DHT22;65100;46.884;17.410;2023-04-03T04:55:52;6.03;69.16
76291;DHT22;65100;46.884;17.410;2023-04-03T04:58:18;6.07;68.42
76291;DHT22;65100;46.884;17.410;2023-04-03T05:00:44;6.05;69.20
76291;DHT22;65100;46.884;17.410;2023-04-03T05:03:10;6.06;69.61
76291;DHT22;65100;46.884;17.410;2023-04-03T05:05:35;6.10;69.14
76291;DHT22;65100;46.884;17.410;2023-04-03T05:08:01;6.10;69.10
76291;DHT22;65100;46.884;17.410;2023-04-03T05:10:27;6.07;69.78
76291;DHT22;65100;46.884;17.410;2023-04-03T05:12:53;6.15;68.43
76291;DHT22;65100;46.884;17.410;2023-04-03T05:15:18;6.27;68.65
76291;DHT22;65100;46.884;17.410;2023-04-03T05:17:44;6.51;68.67
76291;DHT22;65100;46.884;17.410;2023-04-03T05:20:10;7.29;66.67
76291;DHT22;65100;46.884;17.410;2023-04-03T05:22:35;8.22;63.27
76291;DHT22;65100;46.884;17.410;2023-04-03T05:25:01;8.84;61.77
76291;DHT22;65100;46.884;17.410;2023-04-03T05:27:26;9.18;59.20
76291;DHT22;65100;46.884;17.410;2023-04-03T05:29:54;9.43;59.54
76291;DHT22;65100;46.884;17.410;2023-04-03T05:32:19;9.69;58.63
76291;DHT22;65100;46.884;17.410;2023-04-03T05:34:45;10.06;58.03
76291;DHT22;65100;46.884;17.410;2023-04-03T05:37:11;10.21;58.39
76291;DHT22;65100;46.884;17.410;2023-04-03T05:39:36;9.72;58.06
76291;DHT22;65100;46.884;17.410;2023-04-03T05:42:05;9.40;58.85
76291;DHT22;65100;46.884;17.410;2023-04-03T05:44:31;9.69;58.94
76291;DHT22;65100;46.884;17.410;2023-04-03T05:46:57;9.97;57.73
76291;DHT22;65100;46.884;17.410;2023-04-03T05:49:22;9.96;56.51
76291;DHT22;65100;46.884;17.410;2023-04-03T05:51:47;10.32;55.87
76291;DHT22;65100;46.884;17.410;2023-04-03T05:54:39;10.23;54.28
76291;DHT22;65100;46.884;17.410;2023-04-03T05:57:05;9.82;54.47
76291;DHT22;65100;46.884;17.410;2023-04-03T05:59:30;10.34;54.30
76291;DHT22;65100;46.884;17.410;2023-04-03T06:01:56;10.48;53.51
76291;DHT22;65100;46.884;17.410;2023-04-03T06:04:21;10.68;53.89
76291;DHT22;65100;46.884;17.410;2023-04-03T06:06:49;9.97;55.40
76291;DHT22;65100;46.884;17.410;2023-04-03T06:09:18;9.80;54.45
76291;DHT22;65100;46.884;17.410;2023-04-03T06:11:44;9.18;56.47
76291;DHT22;65100;46.884;17.410;2023-04-03T06:14:10;8.64;57.83
76291;DHT22;65100;46.884;17.410;2023-04-03T06:16:36;8.30;59.36
76291;DHT22;65100;46.884;17.410;2023-04-03T06:19:02;7.87;59.65
76291;DHT22;65100;46.884;17.410;2023-04-03T06:21:27;7.71;60.54
76291;DHT22;65100;46.884;17.410;2023-04-03T06:23:53;7.52;60.83
76291;DHT22;65100;46.884;17.410;2023-04-03T06:26:18;7.48;60.82
76291;DHT22;65100;46.884;17.410;2023-04-03T06:28:44;7.41;61.41
76291;DHT22;65100;46.884;17.410;2023-04-03T06:31:09;7.34;62.14
76291;DHT22;65100;46.884;17.410;2023-04-03T06:33:35;7.32;62.52
76291;DHT22;65100;46.884;17.410;2023-04-03T06:36:04;7.25;62.59
76291;DHT22;65100;46.884;17.410;2023-04-03T06:38:31;7.24;61.93
76291;DHT22;65100;46.884;17.410;2023-04-03T06:40:56;7.19;62.37
76291;DHT22;65100;46.884;17.410;2023-04-03T06:43:22;7.24;63.75
76291;DHT22;65100;46.884;17.410;2023-04-03T06:45:47;7.11;62.69
76291;DHT22;65100;46.884;17.410;2023-04-03T06:48:13;7.21;64.22
76291;DHT22;65100;46.884;17.410;2023-04-03T06:50:39;7.18;64.21
76291;DHT22;65100;46.884;17.410;2023-04-03T06:53:04;7.21;63.52
76291;DHT22;65100;46.884;17.410;2023-04-03T06:55:30;7.15;63.23
76291;DHT22;65100;46.884;17.410;2023-04-03T06:57:56;7.18;63.15
76291;DHT22;65100;46.884;17.410;2023-04-03T07:00:22;7.00;63.43
76291;DHT22;65100;46.884;17.410;2023-04-03T07:02:48;6.95;63.33
76291;DHT22;65100;46.884;17.410;2023-04-03T07:05:13;7.01;63.94
76291;DHT22;65100;46.884;17.410;2023-04-03T07:07:39;7.09;63.43
76291;DHT22;65100;46.884;17.410;2023-04-03T07:10:09;7.08;62.71
76291;DHT22;65100;46.884;17.410;2023-04-03T07:12:35;7.09;62.53
76291;DHT22;65100;46.884;17.410;2023-04-03T07:15:01;7.12;63.45
76291;DHT22;65100;46.884;17.410;2023-04-03T07:17:26;7.15;62.12
76291;DHT22;65100;46.884;17.410;2023-04-03T07:19:52;7.17;62.17
76291;DHT22;65100;46.884;17.410;2023-04-03T07:22:17;7.21;61.76
76291;DHT22;65100;46.884;17.410;2023-04-03T07:24:43;7.19;62.26
76291;DHT22;65100;46.884;17.410;2023-04-03T07:27:09;7.19;60.27
76291;DHT22;65100;46.884;17.410;2023-04-03T07:29:35;7.27;60.99
76291;DHT22;65100;46.884;17.410;2023-04-03T07:32:02;7.32;61.12
76291;DHT22;65100;46.884;17.410;2023-04-03T07:34:28;7.25;60.26
76291;DHT22;65100;46.884;17.410;2023-04-03T07:36:53;7.27;59.53
76291;DHT22;65100;46.884;17.410;2023-04-03T07:39:19;7.32;60.04
76291;DHT22;65100;46.884;17.410;2023-04-03T07:41:45;7.32;58.37
76291;DHT22;65100;46.884;17.410;2023-04-03T07:44:10;7.22;59.54
76291;DHT22;65100;46.884;17.410;2023-04-03T07:46:37;7.24;60.73
76291;DHT22;65100;46.884;17.410;2023-04-03T07:49:02;7.18;59.03
76291;DHT22;65100;46.884;17.410;2023-04-03T07:51:28;7.35;62.13
76291;DHT22;65100;46.884;17.410;2023-04-03T07:53:55;7.44;60.10
76291;DHT22;65100;46.884;17.410;2023-04-03T07:56:21;7.44;59.85
76291;DHT22;65100;46.884;17.410;2023-04-03T07:58:48;7.49;60.89
76291;DHT22;65100;46.884;17.410;2023-04-03T08:01:13;7.44;60.65
76291;DHT22;65100;46.884;17.410;2023-04-03T08:03:39;7.44;60.12
76291;DHT22;65100;46.884;17.410;2023-04-03T08:06:06;7.39;60.10
76291;DHT22;65100;46.884;17.410;2023-04-03T08:08:33;7.31;58.32
76291;DHT22;65100;46.884;17.410;2023-04-03T08:11:00;7.29;59.12
76291;DHT22;65100;46.884;17.410;2023-04-03T08:13:27;7.36;59.63
76291;DHT22;65100;46.884;17.410;2023-04-03T08:15:53;7.35;59.46
76291;DHT22;65100;46.884;17.410;2023-04-03T08:18:18;7.36;59.81
76291;DHT22;65100;46.884;17.410;2023-04-03T08:20:46;7.45;59.32
76291;DHT22;65100;46.884;17.410;2023-04-03T08:23:12;7.51;59.44
76291;DHT22;65100;46.884;17.410;2023-04-03T08:25:41;7.51;58.78
76291;DHT22;65100;46.884;17.410;2023-04-03T08:28:08;7.52;58.58
76291;DHT22;65100;46.884;17.410;2023-04-03T08:30:33;7.51;58.74
76291;DHT22;65100;46.884;17.410;2023-04-03T08:33:03;7.51;59.28
76291;DHT22;65100;46.884;17.410;2023-04-03T08:35:28;7.45;59.70
76291;DHT22;65100;46.884;17.410;2023-04-03T08:37:54;7.52;60.67
76291;DHT22;65100;46.884;17.410;2023-04-03T08:40:19;7.52;59.28
76291;DHT22;65100;46.884;17.410;2023-04-03T08:43:25;7.32;57.90
76291;DHT22;65100;46.884;17.410;2023-04-03T08:45:48;7.44;57.69
76291;DHT22;65100;46.884;17.410;2023-04-03T08:51:02;7.52;57.96
76291;DHT22;65100;46.884;17.410;2023-04-03T08:53:33;7.51;57.73
76291;DHT22;65100;46.884;17.410;2023-04-03T08:56:03;7.49;58.87
76291;DHT22;65100;46.884;17.410;2023-04-03T08:58:33;7.54;57.63
76291;DHT22;65100;46.884;17.410;2023-04-03T09:01:16;7.61;57.42
76291;DHT22;65100;46.884;17.410;2023-04-03T09:03:42;7.61;57.89
76291;DHT22;65100;46.884;17.410;2023-04-03T09:06:20;7.55;55.56
76291;DHT22;65100;46.884;17.410;2023-04-03T09:08:57;7.52;56.74
76291;DHT22;65100;46.884;17.410;2023-04-03T09:11:27;7.54;55.77
76291;DHT22;65100;46.884;17.410;2023-04-03T09:14:22;7.68;57.03
76291;DHT22;65100;46.884;17.410;2023-04-03T09:19:30;7.82;57.44
76291;DHT22;65100;46.884;17.410;2023-04-03T09:22:00;7.85;57.96
76291;DHT22;65100;46.884;17.410;2023-04-03T09:24:28;7.93;56.74
76291;DHT22;65100;46.884;17.410;2023-04-03T09:27:01;8.03;58.37
76291;DHT22;65100;46.884;17.410;2023-04-03T09:29:29;8.13;59.24
76291;DHT22;65100;46.884;17.410;2023-04-03T09:31:57;8.20;57.74
76291;DHT22;65100;46.884;17.410;2023-04-03T09:34:27;8.14;55.16
76291;DHT22;65100;46.884;17.410;2023-04-03T09:36:55;8.22;54.97
76291;DHT22;65100;46.884;17.410;2023-04-03T09:39:26;8.00;54.42
76291;DHT22;65100;46.884;17.410;2023-04-03T09:42:02;7.96;53.53
76291;DHT22;65100;46.884;17.410;2023-04-03T09:44:36;8.12;53.12
76291;DHT22;65100;46.884;17.410;2023-04-03T09:47:37;7.93;51.47
76291;DHT22;65100;46.884;17.410;2023-04-03T09:52:38;7.97;53.27
76291;DHT22;65100;46.884;17.410;2023-04-03T09:57:47;8.50;53.81
76291;DHT22;65100;46.884;17.410;2023-04-03T10:00:27;8.43;52.04
76291;DHT22;65100;46.884;17.410;2023-04-03T10:02:57;8.41;53.27
76291;DHT22;65100;46.884;17.410;2023-04-03T10:05:37;8.46;52.80
76291;DHT22;65100;46.884;17.410;2023-04-03T10:10:43;8.67;51.44
76291;DHT22;65100;46.884;17.410;2023-04-03T10:13:16;8.61;51.17
76291;DHT22;65100;46.884;17.410;2023-04-03T10:15:46;8.25;49.94
76291;DHT22;65100;46.884;17.410;2023-04-03T10:41:09;9.21;50.27
76291;DHT22;65100;46.884;17.410;2023-04-03T10:46:15;9.02;46.83
76291;DHT22;65100;46.884;17.410;2023-04-03T10:56:56;9.19;44.77
76291;DHT22;65100;46.884;17.410;2023-04-03T10:59:30;8.75;45.49
76291;DHT22;65100;46.884;17.410;2023-04-03T11:02:06;8.94;47.26
76291;DHT22;65100;46.884;17.410;2023-04-03T11:04:36;8.92;46.71
76291;DHT22;65100;46.884;17.410;2023-04-03T11:07:22;8.92;47.98
76291;DHT22;65100;46.884;17.410;2023-04-03T11:10:11;8.85;48.97
76291;DHT22;65100;46.884;17.410;2023-04-03T11:13:07;8.88;46.42
76291;DHT22;65100;46.884;17.410;2023-04-03T11:15:36;8.94;45.94
76291;DHT22;65100;46.884;17.410;2023-04-03T11:18:06;9.11;48.11
76291;DHT22;65100;46.884;17.410;2023-04-03T11:20:35;9.38;47.02
76291;DHT22;65100;46.884;17.410;2023-04-03T11:23:22;9.22;46.77
76291;DHT22;65100;46.884;17.410;2023-04-03T11:25:51;8.88;43.68
76291;DHT22;65100;46.884;17.410;2023-04-03T11:28:18;8.97;44.36
76291;DHT22;65100;46.884;17.410;2023-04-03T11:33:58;9.50;47.59
76291;DHT22;65100;46.884;17.410;2023-04-03T11:36:46;9.05;42.87
76291;DHT22;65100;46.884;17.410;2023-04-03T11:39:29;8.78;43.73
76291;DHT22;65100;46.884;17.410;2023-04-03T11:42:35;9.26;47.06
76291;DHT22;65100;46.884;17.410;2023-04-03T11:45:34;8.95;45.95
76291;DHT22;65100;46.884;17.410;2023-04-03T11:48:03;8.57;45.39
76291;DHT22;65100;46.884;17.410;2023-04-03T11:50:49;9.04;44.48
76291;DHT22;65100;46.884;17.410;2023-04-03T11:58:26;9.26;44.80
76291;DHT22;65100;46.884;17.410;2023-04-03T12:01:07;9.43;42.90
76291;DHT22;65100;46.884;17.410;2023-04-03T12:03:57;9.59;42.39
76291;DHT22;65100;46.884;17.410;2023-04-03T12:08:57;9.36;42.91
76291;DHT22;65100;46.884;17.410;2023-04-03T12:11:32;9.24;43.37
76291;DHT22;65100;46.884;17.410;2023-04-03T12:16:28;9.90;46.15
76291;DHT22;65100;46.884;17.410;2023-04-03T12:26:43;9.72;43.49
76291;DHT22;65100;46.884;17.410;2023-04-03T12:29:25;9.73;45.00
76291;DHT22;65100;46.884;17.410;2023-04-03T12:35:47;10.07;44.90
76291;DHT22;65100;46.884;17.410;2023-04-03T12:46:50;9.99;43.72
76291;DHT22;65100;46.884;17.410;2023-04-03T12:49:41;9.82;43.96
76291;DHT22;65100;46.884;17.410;2023-04-03T12:52:37;9.62;43.85
76291;DHT22;65100;46.884;17.410;2023-04-03T12:55:11;9.92;44.59
76291;DHT22;65100;46.884;17.410;2023-04-03T12:57:38;10.03;45.62
76291;DHT22;65100;46.884;17.410;2023-04-03T13:02:51;9.04;43.77
76291;DHT22;65100;46.884;17.410;2023-04-03T13:05:19;8.89;45.76
76291;DHT22;65100;46.884;17.410;2023-04-03T13:08:08;8.77;44.27
76291;DHT22;65100;46.884;17.410;2023-04-03T13:10:54;9.15;45.11
76291;DHT22;65100;46.884;17.410;2023-04-03T13:13:21;9.31;44.94
76291;DHT22;65100;46.884;17.410;2023-04-03T13:15:48;9.63;47.71
76291;DHT22;65100;46.884;17.410;2023-04-03T13:18:31;9.89;45.26
76291;DHT22;65100;46.884;17.410;2023-04-03T13:21:13;10.06;47.02
76291;DHT22;65100;46.884;17.410;2023-04-03T13:23:44;9.83;47.13
76291;DHT22;65100;46.884;17.410;2023-04-03T13:26:11;9.39;44.13
76291;DHT22;65100;46.884;17.410;2023-04-03T13:28:39;9.16;45.12
76291;DHT22;65100;46.884;17.410;2023-04-03T13:33:36;9.21;43.46
76291;DHT22;65100;46.884;17.410;2023-04-03T13:36:27;9.29;45.10
76291;DHT22;65100;46.884;17.410;2023-04-03T13:39:22;9.42;44.19
76291;DHT22;65100;46.884;17.410;2023-04-03T13:41:53;9.46;45.58
76291;DHT22;65100;46.884;17.410;2023-04-03T13:47:20;9.69;46.12
76291;DHT22;65100;46.884;17.410;2023-04-03T13:52:42;9.80;47.00
76291;DHT22;65100;46.884;17.410;2023-04-03T13:55:29;9.69;44.69
76291;DHT22;65100;46.884;17.410;2023-04-03T13:58:25;9.42;43.25
76291;DHT22;65100;46.884;17.410;2023-04-03T14:01:17;9.58;46.63
76291;DHT22;65100;46.884;17.410;2023-04-03T14:03:58;9.58;45.50
76291;DHT22;65100;46.884;17.410;2023-04-03T14:06:24;9.35;42.90
76291;DHT22;65100;46.884;17.410;2023-04-03T14:08:50;9.21;43.70
76291;DHT22;65100;46.884;17.410;2023-04-03T14:11:26;9.15;43.87
76291;DHT22;65100;46.884;17.410;2023-04-03T14:13:55;9.15;43.31
76291;DHT22;65100;46.884;17.410;2023-04-03T14:16:23;9.10;44.42
76291;DHT22;65100;46.884;17.410;2023-04-03T14:18:49;8.98;43.07
76291;DHT22;65100;46.884;17.410;2023-04-03T14:21:18;9.10;42.99
76291;DHT22;65100;46.884;17.410;2023-04-03T14:23:44;9.21;42.65
76291;DHT22;65100;46.884;17.410;2023-04-03T14:26:13;9.42;44.57
76291;DHT22;65100;46.884;17.410;2023-04-03T14:28:39;9.53;44.41
76291;DHT22;65100;46.884;17.410;2023-04-03T14:31:05;9.50;43.60
76291;DHT22;65100;46.884;17.410;2023-04-03T14:33:32;9.10;41.90
76291;DHT22;65100;46.884;17.410;2023-04-03T14:36:01;8.74;42.28
76291;DHT22;65100;46.884;17.410;2023-04-03T14:38:29;8.58;43.16
76291;DHT22;65100;46.884;17.410;2023-04-03T14:40:57;8.64;44.99
76291;DHT22;65100;46.884;17.410;2023-04-03T14:43:23;8.72;43.29
76291;DHT22;65100;46.884;17.410;2023-04-03T14:45:50;8.82;42.82
76291;DHT22;65100;46.884;17.410;2023-04-03T14:48:25;8.61;42.60
76291;DHT22;65100;46.884;17.410;2023-04-03T14:50:52;8.70;42.42
76291;DHT22;65100;46.884;17.410;2023-04-03T14:53:19;8.88;41.97
76291;DHT22;65100;46.884;17.410;2023-04-03T14:55:48;8.88;42.07
76291;DHT22;65100;46.884;17.410;2023-04-03T14:58:15;9.16;42.81
76291;DHT22;65100;46.884;17.410;2023-04-03T15:00:43;9.32;42.57
76291;DHT22;65100;46.884;17.410;2023-04-03T15:03:20;9.19;41.39
76291;DHT22;65100;46.884;17.410;2023-04-03T15:05:47;8.80;41.65
76291;DHT22;65100;46.884;17.410;2023-04-03T15:08:19;8.37;42.55
76291;DHT22;65100;46.884;17.410;2023-04-03T15:10:46;8.03;44.97
76291;DHT22;65100;46.884;17.410;2023-04-03T15:13:12;7.93;42.38
76291;DHT22;65100;46.884;17.410;2023-04-03T15:15:38;8.07;44.07
76291;DHT22;65100;46.884;17.410;2023-04-03T15:18:03;8.16;43.00
76291;DHT22;65100;46.884;17.410;2023-04-03T15:20:30;8.19;42.34
76291;DHT22;65100;46.884;17.410;2023-04-03T15:22:56;8.34;43.28
76291;DHT22;65100;46.884;17.410;2023-04-03T15:25:22;8.43;42.63
76291;DHT22;65100;46.884;17.410;2023-04-03T15:27:48;8.47;43.40
76291;DHT22;65100;46.884;17.410;2023-04-03T15:30:17;8.53;43.46
76291;DHT22;65100;46.884;17.410;2023-04-03T15:32:43;8.37;42.59
76291;DHT22;65100;46.884;17.410;2023-04-03T15:35:08;8.23;42.40
76291;DHT22;65100;46.884;17.410;2023-04-03T15:37:34;8.20;42.34
76291;DHT22;65100;46.884;17.410;2023-04-03T15:39:59;8.32;43.05
76291;DHT22;65100;46.884;17.410;2023-04-03T15:42:25;8.26;43.14
76291;DHT22;65100;46.884;17.410;2023-04-03T15:44:50;8.02;43.04
76291;DHT22;65100;46.884;17.410;2023-04-03T15:47:16;7.81;42.73
76291;DHT22;65100;46.884;17.410;2023-04-03T15:49:42;7.61;44.38
76291;DHT22;65100;46.884;17.410;2023-04-03T15:52:07;7.58;45.93
76291;DHT22;65100;46.884;17.410;2023-04-03T15:54:33;7.59;44.63
76291;DHT22;65100;46.884;17.410;2023-04-03T15:56:58;7.54;44.23
76291;DHT22;65100;46.884;17.410;2023-04-03T15:59:24;7.54;46.66
76291;DHT22;65100;46.884;17.410;2023-04-03T16:01:50;7.45;46.78
76291;DHT22;65100;46.884;17.410;2023-04-03T16:04:16;7.39;44.55
76291;DHT22;65100;46.884;17.410;2023-04-03T16:06:42;7.45;45.86
76291;DHT22;65100;46.884;17.410;2023-04-03T16:09:09;7.48;45.36
76291;DHT22;65100;46.884;17.410;2023-04-03T16:11:34;7.48;44.46
76291;DHT22;65100;46.884;17.410;2023-04-03T16:14:01;7.41;45.79
76291;DHT22;65100;46.884;17.410;2023-04-03T16:16:26;7.42;44.43
76291;DHT22;65100;46.884;17.410;2023-04-03T16:18:54;7.42;46.46
76291;DHT22;65100;46.884;17.410;2023-04-03T16:21:20;7.36;43.36
76291;DHT22;65100;46.884;17.410;2023-04-03T16:23:45;7.35;44.27
76291;DHT22;65100;46.884;17.410;2023-04-03T16:26:11;7.31;44.42
76291;DHT22;65100;46.884;17.410;2023-04-03T16:28:37;7.21;43.96
76291;DHT22;65100;46.884;17.410;2023-04-03T16:31:02;7.11;43.11
76291;DHT22;65100;46.884;17.410;2023-04-03T16:33:29;7.09;44.27
76291;DHT22;65100;46.884;17.410;2023-04-03T16:35:55;7.05;43.87
76291;DHT22;65100;46.884;17.410;2023-04-03T16:38:20;7.00;43.98
76291;DHT22;65100;46.884;17.410;2023-04-03T16:40:47;6.98;45.64
76291;DHT22;65100;46.884;17.410;2023-04-03T16:43:14;6.91;45.05
76291;DHT22;65100;46.884;17.410;2023-04-03T16:45:40;6.97;47.25
76291;DHT22;65100;46.884;17.410;2023-04-03T16:48:14;6.95;46.18
76291;DHT22;65100;46.884;17.410;2023-04-03T16:50:40;6.95;47.02
76291;DHT22;65100;46.884;17.410;2023-04-03T16:53:05;6.91;46.68
76291;DHT22;65100;46.884;17.410;2023-04-03T16:55:35;6.83;45.61
76291;DHT22;65100;46.884;17.410;2023-04-03T16:58:00;6.83;46.08
76291;DHT22;65100;46.884;17.410;2023-04-03T17:00:27;6.77;46.35
76291;DHT22;65100;46.884;17.410;2023-04-03T17:02:53;6.77;45.00
76291;DHT22;65100;46.884;17.410;2023-04-03T17:05:18;6.74;44.75
76291;DHT22;65100;46.884;17.410;2023-04-03T17:07:44;6.70;45.36
76291;DHT22;65100;46.884;17.410;2023-04-03T17:10:11;6.63;44.75
76291;DHT22;65100;46.884;17.410;2023-04-03T17:12:37;6.57;45.58
76291;DHT22;65100;46.884;17.410;2023-04-03T17:15:03;6.60;46.66
76291;DHT22;65100;46.884;17.410;2023-04-03T17:17:28;6.53;46.41